Time;durP1;ratioP1;P1;durP2;ratioP2;P2;SDS_P1;SDS_P2;PMS_P1;PMS_P2;Temp;Humidity;BMP_temperature;BMP_pressure;BME280_temperature;BME280_humidity;BME280_pressure;Samples;Min_cycle;Max_cycle;Signal;HPM_P1;HPM_P2
2021/04/01 00:00:51;;;;;;;6.53;3.92;;;;;;;4.90;81.92;93485.28;2098495;28;20494;-81
2021/04/01 00:01:51;;;;;;;10.73;3.47;;;;;;;4.90;82.21;93485.28;2107093;28;20024;-81
2021/04/01 00:02:53;;;;;;;7.20;3.17;;;;;;;4.85;82.28;93484.88;2115264;28;20019;-81
2021/04/01 00:03:54;;;;;;;6.07;3.33;;;;;;;4.91;81.80;93484.16;2106387;28;20657;-81
2021/04/01 00:04:55;;;;;;;8.68;3.33;;;;;;;4.96;81.75;93483.81;2090347;28;20112;-81
2021/04/01 00:05:55;;;;;;;5.65;3.60;;;;;;;4.95;82.12;93479.63;2098340;28;20022;-81
2021/04/01 00:06:56;;;;;;;7.22;3.88;;;;;;;4.99;81.85;93482.31;2086305;28;20021;-81
2021/04/01 00:07:57;;;;;;;6.38;3.35;;;;;;;4.92;81.55;93482.28;2089728;28;20028;-82
2021/04/01 00:08:57;;;;;;;8.43;4.60;;;;;;;4.86;82.32;93479.19;2090065;28;20057;-81
2021/04/01 00:09:58;;;;;;;5.85;3.60;;;;;;;4.82;81.87;93482.97;2090218;28;20025;-81
2021/04/01 00:10:59;;;;;;;6.40;3.42;;;;;;;4.84;82.19;93480.72;2106758;28;20020;-81
2021/04/01 00:11:59;;;;;;;7.75;3.85;;;;;;;4.78;82.48;93477.63;2098224;28;20028;-82
2021/04/01 00:13:00;;;;;;;5.80;3.22;;;;;;;4.73;82.68;93476.09;2081882;28;20030;-81
2021/04/01 00:14:03;;;;;;;4.88;3.25;;;;;;;4.74;82.84;93475.00;2090144;28;20074;-82
2021/04/01 00:15:08;;;;;;;6.70;3.55;;;;;;;4.75;82.90;93473.84;2090423;28;20035;-81
2021/04/01 00:16:09;;;;;;;9.68;3.60;;;;;;;4.77;82.89;93471.59;2083021;28;20022;-82
2021/04/01 00:17:12;;;;;;;5.75;3.80;;;;;;;4.82;82.42;93477.66;2089881;28;20043;-81
2021/04/01 00:18:16;;;;;;;8.35;3.70;;;;;;;4.77;82.58;93471.59;2098169;28;20032;-82
2021/04/01 00:19:17;;;;;;;10.90;3.72;;;;;;;4.76;82.79;93466.66;2082628;28;20121;-81
2021/04/01 00:20:17;;;;;;;8.68;3.78;;;;;;;4.77;83.13;93470.81;2089728;28;20978;-82
2021/04/01 00:21:18;;;;;;;9.27;3.38;;;;;;;4.76;82.48;93469.31;2089872;28;20017;-81
2021/04/01 00:22:18;;;;;;;5.18;3.55;;;;;;;4.78;82.57;93461.75;2090217;28;20417;-81
2021/04/01 00:23:19;;;;;;;7.15;3.90;;;;;;;4.79;82.96;93468.59;2106685;28;20552;-82
2021/04/01 00:24:19;;;;;;;5.03;3.53;;;;;;;4.75;82.67;93465.91;2098229;28;20104;-81
2021/04/01 00:25:22;;;;;;;7.40;3.53;;;;;;;4.70;83.08;93473.44;2090031;28;20107;-80
2021/04/01 00:26:22;;;;;;;8.10;3.90;;;;;;;4.63;82.94;93470.75;2082046;28;20026;-82
2021/04/01 00:27:23;;;;;;;9.30;3.60;;;;;;;4.63;83.08;93466.22;2090146;28;20385;-81
2021/04/01 00:28:24;;;;;;;6.07;3.53;;;;;;;4.64;83.38;93467.72;2098158;28;20039;-81
2021/04/01 00:29:25;;;;;;;7.68;3.78;;;;;;;4.66;83.28;93470.03;2090174;28;20061;-82
2021/04/01 00:30:25;;;;;;;6.13;3.38;;;;;;;4.63;83.74;93465.47;2098255;28;20017;-81
2021/04/01 00:31:26;;;;;;;10.88;3.63;;;;;;;4.63;83.35;93468.09;2090026;28;20025;-82
2021/04/01 00:32:26;;;;;;;8.18;3.40;;;;;;;4.56;84.07;93468.81;2090169;28;20367;-82
2021/04/01 00:33:26;;;;;;;7.97;3.30;;;;;;;4.59;83.62;93470.72;2081371;28;20030;-82
2021/04/01 00:34:27;;;;;;;6.03;3.20;;;;;;;4.57;83.96;93470.34;2089708;28;20021;-81
2021/04/01 00:35:27;;;;;;;5.22;3.47;;;;;;;4.59;83.92;93469.97;2097943;28;20039;-82
2021/04/01 00:36:28;;;;;;;7.78;3.58;;;;;;;4.58;83.86;93468.44;2090007;28;20017;-81
2021/04/01 00:37:28;;;;;;;6.93;3.55;;;;;;;4.52;83.84;93462.72;2098236;28;20063;-81
2021/04/01 00:38:29;;;;;;;9.50;3.65;;;;;;;4.50;84.26;93471.03;2089749;28;20028;-82
2021/04/01 00:39:29;;;;;;;6.63;3.35;;;;;;;4.52;84.10;93468.81;2098163;28;20043;-81
2021/04/01 00:40:29;;;;;;;5.90;3.30;;;;;;;4.53;84.01;93469.56;2081768;28;20029;-81
2021/04/01 00:41:30;;;;;;;5.88;3.47;;;;;;;4.47;84.22;93466.47;2081578;28;20036;-82
2021/04/01 00:42:31;;;;;;;7.93;3.70;;;;;;;4.47;84.05;93460.44;2081712;28;20025;-82
2021/04/01 00:43:33;;;;;;;6.97;3.78;;;;;;;4.43;84.41;93470.97;2081777;28;20029;-81
2021/04/01 00:44:35;;;;;;;6.50;3.42;;;;;;;4.39;85.45;93467.56;2098217;28;20024;-81
2021/04/01 00:45:35;;;;;;;8.30;3.35;;;;;;;4.37;85.11;93464.53;2090701;28;20021;-81
2021/04/01 00:46:36;;;;;;;9.85;3.85;;;;;;;4.34;84.24;93467.13;2089859;28;20024;-82
2021/04/01 00:47:39;;;;;;;9.98;3.55;;;;;;;4.35;84.40;93469.44;2089981;28;20021;-81
2021/04/01 00:48:40;;;;;;;7.55;3.20;;;;;;;4.32;84.63;93466.75;2090293;28;20024;-82
2021/04/01 00:49:40;;;;;;;8.70;3.85;;;;;;;4.35;85.26;93463.38;2089932;28;20528;-82
2021/04/01 00:50:41;;;;;;;7.65;3.70;;;;;;;4.31;85.27;93459.94;2081805;28;20025;-82
2021/04/01 00:51:42;;;;;;;14.35;3.50;;;;;;;4.32;85.65;93461.47;2089818;28;20021;-80
2021/04/01 00:52:42;;;;;;;11.30;3.92;;;;;;;4.28;85.74;93464.84;2090021;28;20495;-82
2021/04/01 00:53:43;;;;;;;7.45;3.60;;;;;;;4.29;85.92;93457.66;2089857;28;20067;-82
2021/04/01 00:54:43;;;;;;;5.32;3.50;;;;;;;4.27;86.02;93458.03;2081533;28;20024;-81
2021/04/01 00:55:43;;;;;;;8.20;3.63;;;;;;;4.29;85.78;93461.06;2081720;28;20442;-81
2021/04/01 00:56:44;;;;;;;8.15;3.60;;;;;;;4.30;85.26;93453.88;2081436;28;20076;-82
2021/04/01 00:57:48;;;;;;;9.25;3.85;;;;;;;4.35;84.73;93456.19;2098060;28;20073;-82
2021/04/01 00:58:48;;;;;;;7.18;3.20;;;;;;;4.31;84.24;93452.78;2090122;28;20070;-81
2021/04/01 00:59:49;;;;;;;5.75;3.90;;;;;;;4.29;84.60;93453.13;2089828;28;20074;-81
2021/04/01 01:00:59;;;;;;;4.85;3.15;;;;;;;4.30;85.16;93451.22;2098055;28;20417;-82
2021/04/01 01:02:02;;;;;;;;;;;;;;;4.23;85.27;93457.25;2106946;28;20522;-82
2021/04/01 01:03:03;;;;;;;6.65;3.08;;;;;;;4.24;85.80;93450.06;2090070;28;19915;-82
2021/04/01 01:04:04;;;;;;;7.93;3.88;;;;;;;4.20;85.94;93454.56;2089543;28;20051;-81
2021/04/01 01:05:06;;;;;;;10.77;3.80;;;;;;;4.19;86.03;93451.16;2097746;28;20035;-81
2021/04/01 01:06:06;;;;;;;6.43;3.35;;;;;;;4.23;85.79;93449.31;2098081;28;20032;-81
2021/04/01 01:07:07;;;;;;;4.95;3.85;;;;;;;4.22;86.09;93447.78;2097987;28;20012;-81
2021/04/01 01:08:08;;;;;;;7.68;3.45;;;;;;;4.25;85.62;93446.28;2106152;28;20475;-82
2021/04/01 01:09:09;;;;;;;8.38;4.00;;;;;;;4.21;87.02;93443.59;2114734;28;20114;-82
2021/04/01 01:10:18;;;;;;;6.78;3.60;;;;;;;4.24;86.28;93447.41;2106558;28;20031;-81
2021/04/01 01:11:19;;;;;;;8.02;3.40;;;;;;;4.23;85.72;93451.19;2107635;28;21686;-81
2021/04/01 01:12:20;;;;;;;7.13;3.30;;;;;;;4.19;85.27;93443.22;2106316;28;20070;-82
2021/04/01 01:13:20;;;;;;;7.68;3.58;;;;;;;4.25;85.38;93443.63;2106034;28;20012;-81
2021/04/01 01:14:21;;;;;;;9.40;3.33;;;;;;;4.22;85.38;93444.38;2106220;28;20027;-81
2021/04/01 01:15:22;;;;;;;8.30;3.72;;;;;;;4.22;85.48;93439.09;2106398;28;20089;-82
2021/04/01 01:16:23;;;;;;;8.27;3.40;;;;;;;4.21;85.47;93440.97;2098021;28;20024;-81
2021/04/01 01:17:23;;;;;;;8.32;3.95;;;;;;;4.10;86.08;93448.06;2097898;28;20024;-82
2021/04/01 01:18:26;;;;;;;9.32;3.50;;;;;;;4.13;86.29;93442.06;2097712;28;20435;-82
2021/04/01 01:19:41;;;;;;;5.78;3.30;;;;;;;4.17;85.87;93439.41;2106638;28;20035;-81
2021/04/01 01:20:41;;;;;;;6.55;3.95;;;;;;;4.13;86.32;93438.66;2114650;28;20110;-82
2021/04/01 01:21:42;;;;;;;7.20;3.60;;;;;;;4.17;86.62;93439.41;2097864;28;20028;-81
2021/04/01 01:22:42;;;;;;;6.90;3.35;;;;;;;4.12;86.83;93435.22;2106509;28;20020;-81
2021/04/01 01:23:44;;;;;;;5.55;3.35;;;;;;;4.12;85.96;93445.03;2106010;28;20020;-81
2021/04/01 01:24:45;;;;;;;6.45;3.33;;;;;;;4.07;86.21;93440.84;2097880;28;20028;-81
2021/04/01 01:25:46;;;;;;;5.35;3.33;;;;;;;4.00;87.09;93443.47;2089534;28;20381;-81
2021/04/01 01:26:46;;;;;;;6.82;3.50;;;;;;;3.99;87.28;93442.69;2089651;28;20027;-81
2021/04/01 01:27:47;;;;;;;6.72;3.47;;;;;;;4.00;87.44;93438.16;2089616;28;20028;-81
2021/04/01 01:28:48;;;;;;;5.35;3.40;;;;;;;4.04;87.21;93441.59;2097803;28;20047;-82
2021/04/01 01:29:49;;;;;;;6.70;3.83;;;;;;;4.03;87.30;93434.78;2106217;28;20028;-81
2021/04/01 01:30:51;;;;;;;5.97;4.03;;;;;;;4.01;87.54;93437.78;2097868;28;20024;-82
2021/04/01 01:31:51;;;;;;;5.18;3.53;;;;;;;3.98;87.39;93437.75;2097902;28;20024;-81
2021/04/01 01:32:59;;;;;;;7.53;3.15;;;;;;;3.99;87.62;93437.38;2106234;28;20047;-81
2021/04/01 01:33:59;;;;;;;9.73;3.58;;;;;;;3.98;87.55;93443.06;2107033;28;20027;-81
2021/04/01 01:35:00;;;;;;;9.30;3.30;;;;;;;4.02;87.29;93444.59;2097792;28;20016;-81
2021/04/01 01:36:00;;;;;;;7.13;3.30;;;;;;;4.00;87.14;93433.63;2097727;28;20116;-82
2021/04/01 01:37:04;;;;;;;4.18;3.05;;;;;;;4.02;86.72;93438.56;2097739;28;20035;-81
2021/04/01 01:38:07;;;;;;;7.28;3.47;;;;;;;4.07;86.52;93437.47;2106662;28;20488;-82
2021/04/01 01:39:07;;;;;;;7.00;3.15;;;;;;;4.00;86.98;93435.53;2097737;28;20516;-82
2021/04/01 01:40:08;;;;;;;7.20;3.10;;;;;;;4.08;86.84;93436.31;2097767;28;20028;-82
2021/04/01 01:41:09;;;;;;;9.30;3.70;;;;;;;4.00;87.42;93436.28;2097752;28;20024;-81
2021/04/01 01:42:09;;;;;;;7.07;4.07;;;;;;;3.95;88.11;93436.63;2106209;28;20077;-81
2021/04/01 01:43:13;;;;;;;6.50;3.28;;;;;;;3.92;87.78;93436.59;2114632;28;20023;-81
2021/04/01 01:44:13;;;;;;;10.38;3.60;;;;;;;3.90;87.46;93434.28;2097923;28;20096;-82
2021/04/01 01:45:15;;;;;;;6.43;3.33;;;;;;;3.92;87.47;93431.31;2097745;28;20029;-81
2021/04/01 01:46:16;;;;;;;5.97;4.45;;;;;;;3.90;87.70;93438.81;2097796;28;20074;-82
2021/04/01 01:47:16;;;;;;;9.52;3.45;;;;;;;3.89;87.81;93434.66;2097088;28;20443;-81
2021/04/01 01:48:16;;;;;;;6.15;4.05;;;;;;;3.88;87.26;93433.91;2089219;28;20119;-81
2021/04/01 01:49:17;;;;;;;5.07;3.00;;;;;;;3.90;86.80;93433.53;2089315;28;20029;-81
2021/04/01 01:50:20;;;;;;;6.90;3.80;;;;;;;3.87;87.56;93429.75;2097701;28;20031;-81
2021/04/01 01:51:20;;;;;;;7.40;3.35;;;;;;;3.80;87.69;93432.31;2098336;28;20111;-80
2021/04/01 01:52:21;;;;;;;7.57;3.40;;;;;;;3.74;87.28;93429.25;2105984;28;20062;-82
2021/04/01 01:53:21;;;;;;;5.03;3.22;;;;;;;3.78;87.30;93429.28;2106035;28;20154;-81
2021/04/01 01:54:22;;;;;;;6.70;3.63;;;;;;;3.81;87.54;93439.13;2097416;28;20025;-81
2021/04/01 01:55:22;;;;;;;6.18;3.22;;;;;;;3.79;87.71;93428.16;2089339;28;20021;-82
2021/04/01 01:56:24;;;;;;;3.90;3.10;;;;;;;3.81;87.86;93430.44;2089350;28;20032;-81
2021/04/01 01:57:25;;;;;;;6.35;3.25;;;;;;;3.80;87.39;93432.31;2089509;28;20112;-81
2021/04/01 01:58:25;;;;;;;6.88;3.15;;;;;;;3.83;87.41;93428.97;2097685;28;20020;-81
2021/04/01 01:59:26;;;;;;;7.45;3.40;;;;;;;3.76;87.67;93426.25;2089235;28;20375;-82
2021/04/01 02:00:38;;;;;;;4.75;3.40;;;;;;;3.77;87.67;93430.41;2084851;28;20025;-81
2021/04/01 02:01:39;;;;;;;6.65;3.45;;;;;;;3.78;87.36;93427.41;2092431;28;20036;-80
2021/04/01 02:02:39;;;;;;;7.05;3.47;;;;;;;3.73;87.49;93433.03;2097626;28;20056;-81
2021/04/01 02:03:40;;;;;;;7.07;3.00;;;;;;;3.73;88.09;93433.03;2097439;28;20547;-82
2021/04/01 02:04:40;;;;;;;8.13;3.40;;;;;;;3.75;87.75;93436.06;2090546;28;20060;-82
2021/04/01 02:05:41;;;;;;;4.20;3.35;;;;;;;3.69;87.99;93426.94;2089069;28;20115;-82
2021/04/01 02:06:43;;;;;;;8.32;3.50;;;;;;;3.73;87.92;93422.47;2097586;28;20209;-82
2021/04/01 02:07:44;;;;;;;9.88;3.28;;;;;;;3.68;87.50;93425.41;2106176;28;20560;-81
2021/04/01 02:08:46;;;;;;;8.77;3.67;;;;;;;3.73;87.42;93427.75;2105777;28;20035;-81
2021/04/01 02:09:47;;;;;;;7.00;3.58;;;;;;;3.67;87.37;93429.19;2089627;28;20025;-81
2021/04/01 02:10:51;;;;;;;5.32;3.25;;;;;;;3.67;87.78;93429.19;2089401;28;20466;-81
2021/04/01 02:11:51;;;;;;;8.60;3.60;;;;;;;3.62;87.26;93423.47;2098413;28;20078;-81
2021/04/01 02:12:55;;;;;;;3.95;3.47;;;;;;;3.69;87.67;93418.25;2105762;28;20073;-81
2021/04/01 02:13:56;;;;;;;8.75;3.80;;;;;;;3.67;88.26;93426.53;2097738;28;20354;-81
2021/04/01 02:14:56;;;;;;;7.78;3.80;;;;;;;3.69;88.33;93423.56;2097589;28;20055;-81
2021/04/01 02:15:57;;;;;;;6.88;3.65;;;;;;;3.67;88.14;93417.84;2105954;28;20377;-82
2021/04/01 02:16:58;;;;;;;7.45;3.90;;;;;;;3.65;87.65;93418.22;2097542;28;20031;-82
2021/04/01 02:18:09;;;;;;;8.20;3.40;;;;;;;3.69;87.60;93420.91;2089410;28;20025;-81
2021/04/01 02:19:10;;;;;;;7.32;3.33;;;;;;;3.73;87.00;93426.97;2100249;28;20020;-81
2021/04/01 02:20:11;;;;;;;6.38;3.50;;;;;;;3.68;86.81;93416.72;2105878;28;20020;-81
2021/04/01 02:21:13;;;;;;;5.88;3.53;;;;;;;3.72;86.98;93418.28;2105933;28;20024;-81
2021/04/01 02:22:14;;;;;;;9.10;3.40;;;;;;;3.73;87.09;93421.69;2097713;28;20103;-81
2021/04/01 02:23:19;;;;;;;9.23;3.60;;;;;;;3.71;87.46;93421.28;2089311;28;20032;-81
2021/04/01 02:24:19;;;;;;;6.05;3.50;;;;;;;3.69;87.97;93412.97;2098645;28;20116;-80
2021/04/01 02:25:20;;;;;;;4.97;3.17;;;;;;;3.73;87.82;93411.88;2106017;28;20024;-81
2021/04/01 02:26:20;;;;;;;5.75;3.58;;;;;;;3.72;88.09;93420.91;2106462;28;20035;-80
2021/04/01 02:27:21;;;;;;;9.32;3.55;;;;;;;3.72;88.06;93417.53;2097604;28;20079;-81
2021/04/01 02:28:23;;;;;;;6.07;3.75;;;;;;;3.63;88.43;93417.81;2105854;28;20694;-81
2021/04/01 02:29:24;;;;;;;8.02;3.72;;;;;;;3.60;89.30;93413.28;2105764;28;20020;-80
2021/04/01 02:30:24;;;;;;;6.43;3.40;;;;;;;3.63;89.39;93411.78;2105840;28;20361;-82
2021/04/01 02:31:25;;;;;;;8.18;4.25;;;;;;;3.59;88.93;93413.63;2097523;28;20020;-81
2021/04/01 02:32:25;;;;;;;7.50;3.65;;;;;;;3.56;89.65;93416.97;2089429;28;20025;-82
2021/04/01 02:33:29;;;;;;;5.03;3.60;;;;;;;3.60;89.25;93408.00;2092973;28;20022;-81
2021/04/01 02:34:30;;;;;;;8.82;3.42;;;;;;;3.55;89.27;93410.94;2089395;28;20605;-81
2021/04/01 02:35:31;;;;;;;5.15;3.30;;;;;;;3.56;89.52;93417.78;2080990;28;20021;-82
2021/04/01 02:36:31;;;;;;;5.22;3.60;;;;;;;3.62;88.68;93405.72;2089226;28;20705;-80
2021/04/01 02:37:31;;;;;;;4.65;3.55;;;;;;;3.59;88.20;93405.69;2097392;28;20119;-82
2021/04/01 02:38:33;;;;;;;3.47;2.97;;;;;;;3.56;88.67;93407.19;2089206;28;20079;-82
2021/04/01 02:39:33;;;;;;;9.65;3.40;;;;;;;3.47;88.39;93404.84;2080969;28;20025;-81
2021/04/01 02:40:36;;;;;;;8.82;3.58;;;;;;;3.53;88.93;93403.38;2089334;28;20086;-81
2021/04/01 02:41:37;;;;;;;6.18;3.50;;;;;;;3.53;88.85;93402.63;2097456;28;20734;-81
2021/04/01 02:42:37;;;;;;;9.95;3.90;;;;;;;3.55;89.24;93405.66;2089139;28;20025;-81
2021/04/01 02:43:37;;;;;;;9.45;3.50;;;;;;;3.49;88.84;93402.59;2080969;28;20026;-81
2021/04/01 02:44:38;;;;;;;6.63;3.47;;;;;;;3.51;88.85;93395.06;2089094;28;20029;-81
2021/04/01 02:45:39;;;;;;;6.35;3.83;;;;;;;3.51;88.57;93403.00;2081056;28;20048;-81
2021/04/01 02:46:39;;;;;;;4.68;3.58;;;;;;;3.45;88.87;93398.41;2080903;28;20029;-81
2021/04/01 02:47:40;;;;;;;7.53;3.92;;;;;;;3.43;89.09;93398.78;2089058;28;20059;-81
2021/04/01 02:48:40;;;;;;;6.25;3.50;;;;;;;3.42;89.96;93397.22;2106010;28;20084;-81
2021/04/01 02:49:41;;;;;;;6.45;3.40;;;;;;;3.43;89.88;93395.38;2105594;28;20393;-81
2021/04/01 02:50:41;;;;;;;10.55;3.65;;;;;;;3.44;89.81;93394.25;2097430;28;20031;-81
2021/04/01 02:51:41;;;;;;;5.22;3.15;;;;;;;3.43;89.09;93398.00;2097457;28;20103;-81
2021/04/01 02:52:42;;;;;;;6.80;3.50;;;;;;;3.42;89.44;93397.22;2089240;28;20028;-81
2021/04/01 02:53:42;;;;;;;7.90;3.85;;;;;;;3.36;89.23;93398.69;2089152;28;20090;-82
2021/04/01 02:54:43;;;;;;;6.97;3.53;;;;;;;3.37;88.76;93392.28;2097212;28;20032;-81
2021/04/01 02:55:43;;;;;;;11.40;3.80;;;;;;;3.35;89.37;93397.19;2105803;28;20105;-81
2021/04/01 02:56:43;;;;;;;4.95;3.30;;;;;;;3.39;89.38;93402.50;2097452;28;20086;-81
2021/04/01 02:57:44;;;;;;;9.73;3.67;;;;;;;3.36;90.27;93393.41;2097491;28;20050;-82
2021/04/01 02:58:45;;;;;;;7.97;3.60;;;;;;;3.36;90.36;93401.34;2098480;28;20409;-81
2021/04/01 02:59:46;;;;;;;5.70;3.70;;;;;;;3.36;89.98;93393.41;2090575;28;20029;-82
2021/04/01 03:00:46;;;;;;;5.32;3.22;;;;;;;3.38;90.04;93398.31;2099245;28;20524;-81
2021/04/01 03:01:47;;;;;;;8.25;3.90;;;;;;;3.38;89.50;93396.47;2107359;28;20031;-80
2021/04/01 03:02:54;;;;;;;7.93;3.28;;;;;;;3.40;89.37;93396.09;2115905;28;20022;-80
2021/04/01 03:03:55;;;;;;;7.97;3.42;;;;;;;3.42;88.84;93394.59;2107372;28;20028;-80
2021/04/01 03:04:56;;;;;;;4.18;3.50;;;;;;;3.42;89.78;93393.81;2099173;28;20116;-81
2021/04/01 03:05:58;;;;;;;5.18;3.35;;;;;;;3.42;89.78;93394.59;2107359;28;20027;-81
2021/04/01 03:06:58;;;;;;;12.98;4.10;;;;;;;3.39;89.06;93397.22;2099245;28;20058;-80
2021/04/01 03:07:59;;;;;;;7.15;3.50;;;;;;;3.39;89.77;93391.94;2107368;28;20538;-82
2021/04/01 03:08:59;;;;;;;6.05;3.50;;;;;;;3.39;90.06;93397.97;2098923;28;20028;-82
2021/04/01 03:10:00;;;;;;;9.95;3.80;;;;;;;3.31;91.28;93390.34;2098729;28;20055;-82
2021/04/01 03:11:00;;;;;;;8.80;4.13;;;;;;;3.33;91.00;93390.72;2090748;28;20024;-81
2021/04/01 03:12:01;;;;;;;6.13;3.45;;;;;;;3.33;90.67;93390.72;2098864;28;20111;-82
2021/04/01 03:13:02;;;;;;;6.20;4.00;;;;;;;3.35;90.65;93388.50;2098913;28;20644;-82
2021/04/01 03:14:03;;;;;;;9.68;3.47;;;;;;;3.38;90.26;93390.38;2098902;28;20028;-82
2021/04/01 03:15:05;;;;;;;9.93;3.45;;;;;;;3.41;89.64;93390.44;2090468;28;20025;-82
2021/04/01 03:16:06;;;;;;;6.03;3.63;;;;;;;3.39;89.54;93387.41;2082792;28;20029;-82
2021/04/01 03:17:06;;;;;;;9.60;3.67;;;;;;;3.37;89.88;93394.16;2099034;28;20028;-82
2021/04/01 03:18:07;;;;;;;9.50;4.07;;;;;;;3.35;89.87;93393.78;2098843;28;20508;-82
2021/04/01 03:19:07;;;;;;;8.60;3.80;;;;;;;3.38;89.65;93391.19;2082461;28;20116;-82
2021/04/01 03:20:09;;;;;;;6.47;3.38;;;;;;;3.38;89.25;93393.03;2082343;28;20022;-81
2021/04/01 03:21:10;;;;;;;7.68;3.60;;;;;;;3.33;89.99;93393.38;2098955;28;20476;-82
2021/04/01 03:22:10;;;;;;;8.27;3.38;;;;;;;3.34;90.20;93392.25;2098912;28;20025;-81
2021/04/01 03:23:11;;;;;;;4.95;3.58;;;;;;;3.32;90.92;93394.50;2107223;28;20024;-82
2021/04/01 03:24:12;;;;;;;7.30;3.20;;;;;;;3.33;90.96;93388.84;2098834;28;20385;-82
2021/04/01 03:25:13;;;;;;;5.18;3.53;;;;;;;3.32;90.43;93383.94;2098731;28;20051;-82
2021/04/01 03:26:14;;;;;;;4.78;3.40;;;;;;;3.30;89.98;93389.59;2098866;28;20027;-82
2021/04/01 03:27:14;;;;;;;8.23;3.90;;;;;;;3.27;89.97;93392.94;2090462;28;20044;-81
2021/04/01 03:28:16;;;;;;;10.60;3.70;;;;;;;3.28;90.54;93394.44;2090607;28;20143;-82
2021/04/01 03:29:16;;;;;;;7.70;3.95;;;;;;;3.25;91.04;93393.31;2090659;28;20068;-82
2021/04/01 03:30:17;;;;;;;7.03;4.07;;;;;;;3.25;91.74;93390.66;2090395;28;20056;-82
2021/04/01 03:31:18;;;;;;;7.13;3.40;;;;;;;3.24;91.53;93388.38;2096961;28;20027;-81
2021/04/01 03:32:18;;;;;;;5.72;3.92;;;;;;;3.23;90.40;93390.25;2098793;28;20029;-82
2021/04/01 03:33:19;;;;;;;6.55;3.95;;;;;;;3.30;90.30;93394.09;2107130;28;20020;-81
2021/04/01 03:34:19;;;;;;;7.97;4.30;;;;;;;3.27;89.69;93390.28;2115643;28;20744;-82
2021/04/01 03:35:24;;;;;;;7.75;4.05;;;;;;;3.33;89.83;93388.84;2107010;28;20043;-82
2021/04/01 03:36:26;;;;;;;5.63;3.47;;;;;;;3.30;90.39;93397.50;2091471;28;20067;-81
2021/04/01 03:37:27;;;;;;;5.07;3.25;;;;;;;3.32;90.26;93384.69;2090457;28;20016;-82
2021/04/01 03:38:28;;;;;;;6.43;3.40;;;;;;;3.34;90.07;93394.91;2090502;28;20021;-80
2021/04/01 03:39:28;;;;;;;8.60;4.13;;;;;;;3.29;89.87;93390.69;2098678;28;20443;-82
2021/04/01 03:40:29;;;;;;;6.18;3.95;;;;;;;3.24;90.06;93389.13;2090420;28;20025;-82
2021/04/01 03:41:29;;;;;;;6.18;3.42;;;;;;;3.17;90.31;93397.00;2090355;28;20444;-82
2021/04/01 03:42:31;;;;;;;7.82;4.00;;;;;;;3.14;90.60;93403.00;2098734;28;20027;-80
2021/04/01 03:43:31;;;;;;;8.82;3.80;;;;;;;3.17;90.41;93393.59;2098675;28;20029;-82
2021/04/01 03:44:32;;;;;;;6.65;3.95;;;;;;;3.15;91.21;93387.91;2090064;28;20389;-82
2021/04/01 03:45:32;;;;;;;4.72;3.70;;;;;;;3.06;92.76;93390.81;2090202;28;20033;-81
2021/04/01 03:46:33;;;;;;;7.80;3.75;;;;;;;3.10;92.06;93390.88;2090507;28;20116;-80
2021/04/01 03:47:33;;;;;;;7.07;4.30;;;;;;;3.08;92.06;93393.88;2090395;28;20039;-82
2021/04/01 03:48:34;;;;;;;11.52;4.20;;;;;;;3.11;92.01;93392.38;2090317;28;20090;-82
2021/04/01 03:49:34;;;;;;;8.65;4.28;;;;;;;3.12;92.08;93393.94;2106885;28;20039;-81
2021/04/01 03:50:34;;;;;;;7.50;3.60;;;;;;;3.11;91.25;93392.38;2098594;28;20052;-81
2021/04/01 03:51:35;;;;;;;6.10;3.72;;;;;;;3.09;91.47;93389.34;2082124;28;20382;-81
2021/04/01 03:52:36;;;;;;;5.22;3.50;;;;;;;3.02;91.67;93393.41;2090417;28;20025;-81
2021/04/01 03:53:37;;;;;;;9.68;4.45;;;;;;;3.05;90.60;93389.31;2098628;28;20043;-80
2021/04/01 03:54:37;;;;;;;7.70;3.70;;;;;;;3.07;90.67;93388.94;2098504;28;20066;-82
2021/04/01 03:55:42;;;;;;;6.05;3.97;;;;;;;3.14;89.81;93389.03;2090335;28;20021;-82
2021/04/01 03:56:48;;;;;;;8.43;3.83;;;;;;;3.10;89.83;93390.88;2090860;28;20056;-81
2021/04/01 03:57:52;;;;;;;10.25;4.05;;;;;;;3.13;89.55;93390.16;2099320;28;20099;-81
2021/04/01 03:59:00;;;;;;;6.47;3.67;;;;;;;3.10;90.08;93390.88;2090694;28;20058;-82
2021/04/01 04:00:13;;;;;;;8.10;4.00;;;;;;;3.18;90.05;93390.59;2083768;28;20071;-81
2021/04/01 04:02:59;;;;;;;6.33;4.10;;;;;;;3.10;90.73;93386.34;2101096;28;20024;-81
2021/04/01 04:05:08;;;;;;;7.78;3.55;;;;;;;3.09;91.59;93392.00;2106838;28;20370;-82
2021/04/01 04:10:48;;;;;;;7.82;3.63;;;;;;;3.03;91.68;93394.22;2106055;28;20043;-81
2021/04/01 04:13:15;;;;;;;8.00;3.85;;;;;;;3.02;91.52;93401.34;2115224;28;20051;-81
2021/04/01 04:14:25;;;;;;;8.38;4.00;;;;;;;3.01;91.96;93401.72;2099926;28;20122;-80
2021/04/01 04:15:25;;;;;;;6.25;3.45;;;;;;;2.95;92.21;93395.25;2092439;28;20021;-80
2021/04/01 04:16:26;;;;;;;7.35;3.50;;;;;;;2.90;92.66;93398.97;2098556;28;20031;-81
2021/04/01 04:17:26;;;;;;;7.20;3.25;;;;;;;2.87;92.89;93394.41;2098419;28;20028;-82
2021/04/01 04:18:27;;;;;;;5.05;3.10;;;;;;;2.87;92.65;93393.63;2098444;28;20115;-82
2021/04/01 04:19:27;;;;;;;5.90;3.60;;;;;;;2.92;92.37;93396.72;2098212;28;20392;-81
2021/04/01 04:20:28;;;;;;;6.13;3.50;;;;;;;2.90;92.75;93396.31;2090079;28;20029;-82
2021/04/01 04:21:28;;;;;;;9.05;4.05;;;;;;;2.98;92.69;93402.44;2098394;28;20029;-82
2021/04/01 04:22:29;;;;;;;9.38;3.67;;;;;;;3.05;92.58;93391.94;2106633;28;20028;-81
2021/04/01 04:23:29;;;;;;;5.88;3.50;;;;;;;2.92;92.50;93396.72;2090093;28;20025;-81
2021/04/01 04:24:33;;;;;;;5.90;3.30;;;;;;;2.88;92.97;93395.16;2098308;28;20064;-80
2021/04/01 04:25:35;;;;;;;6.57;3.58;;;;;;;2.85;93.85;93393.97;2098351;28;20047;-81
2021/04/01 04:26:35;;;;;;;7.03;3.75;;;;;;;2.84;93.19;93395.09;2105748;28;20024;-81
2021/04/01 04:28:55;;;;;;;6.80;4.10;;;;;;;2.91;93.17;93400.47;2102812;28;20106;-82
2021/04/01 04:30:02;;;;;;;6.25;3.40;;;;;;;2.91;92.65;93395.19;2106536;28;20028;-81
2021/04/01 04:31:03;;;;;;;8.70;4.00;;;;;;;2.89;93.08;93397.41;2098888;28;20040;-82
2021/04/01 04:32:04;;;;;;;8.05;3.40;;;;;;;2.82;93.56;93399.25;2103903;28;20431;-81
2021/04/01 04:33:05;;;;;;;9.20;3.83;;;;;;;2.81;93.55;93401.13;2102677;28;20025;-81
2021/04/01 04:34:05;;;;;;;11.55;3.53;;;;;;;2.76;93.52;93396.91;2093505;28;20036;-81
2021/04/01 04:35:06;;;;;;;5.90;3.47;;;;;;;2.77;92.72;93398.44;2101979;28;20032;-81
2021/04/01 04:36:07;;;;;;;9.68;3.55;;;;;;;2.75;92.78;93399.91;2100879;28;20029;-81
2021/04/01 04:37:08;;;;;;;8.27;3.85;;;;;;;2.74;92.46;93398.38;2101812;28;20020;-80
2021/04/01 04:38:08;;;;;;;3.58;3.25;;;;;;;2.71;92.28;93407.78;2105714;28;20612;-81
2021/04/01 04:39:09;;;;;;;9.32;3.50;;;;;;;2.65;92.60;93406.56;2096702;28;20036;-82
2021/04/01 04:40:11;;;;;;;11.05;3.95;;;;;;;2.69;93.06;93403.97;2096962;28;20070;-81
2021/04/01 04:41:11;;;;;;;11.80;4.10;;;;;;;2.68;93.09;93403.22;2093742;28;20051;-81
2021/04/01 04:42:11;;;;;;;6.50;3.72;;;;;;;2.70;93.79;93400.22;2097795;28;20462;-81
2021/04/01 04:43:12;;;;;;;8.30;4.38;;;;;;;2.67;93.18;93406.97;2089791;28;20032;-81
2021/04/01 04:44:13;;;;;;;6.30;3.72;;;;;;;2.70;92.70;93403.63;2089457;28;20029;-81
2021/04/01 04:45:13;;;;;;;12.50;3.80;;;;;;;2.66;92.73;93402.81;2097967;28;20036;-81
2021/04/01 04:46:14;;;;;;;9.02;3.70;;;;;;;2.66;92.87;93407.34;2114653;28;20032;-82
2021/04/01 04:47:14;;;;;;;5.50;4.18;;;;;;;2.63;92.84;93403.50;2111410;28;20019;-81
2021/04/01 04:48:15;;;;;;;8.45;3.70;;;;;;;2.67;93.56;93411.47;2090487;28;20049;-81
2021/04/01 04:49:15;;;;;;;8.63;4.10;;;;;;;2.68;92.89;93407.75;2089440;28;20032;-81
2021/04/01 04:50:16;;;;;;;7.80;3.92;;;;;;;2.66;93.64;93404.69;2089358;28;20021;-81
2021/04/01 04:51:16;;;;;;;7.70;3.58;;;;;;;2.66;92.83;93409.97;2106243;28;20024;-81
2021/04/01 04:52:20;;;;;;;7.63;3.95;;;;;;;2.71;92.27;93409.66;2114652;28;20076;-81
2021/04/01 04:53:20;;;;;;;7.07;3.28;;;;;;;2.66;92.05;93402.81;2106213;28;20564;-81
2021/04/01 04:54:21;;;;;;;5.80;3.58;;;;;;;2.71;92.39;93404.38;2097545;28;20024;-80
2021/04/01 04:55:22;;;;;;;10.20;4.00;;;;;;;2.71;92.60;93402.50;2095385;28;20468;-81
2021/04/01 04:56:24;;;;;;;9.55;4.07;;;;;;;2.73;91.83;93408.19;2114620;28;20031;-82
2021/04/01 04:57:37;;;;;;;7.85;3.72;;;;;;;2.73;92.91;93404.78;2105933;28;20024;-82
2021/04/01 05:04:57;;;;;;;9.45;3.65;;;;;;;2.73;91.55;93404.78;2102054;28;20075;-81
2021/04/01 05:05:58;;;;;;;7.45;4.25;;;;;;;2.74;92.04;93401.78;2106006;28;20058;-81
2021/04/01 05:06:59;;;;;;;7.93;3.95;;;;;;;2.81;91.94;93406.41;2105985;28;20028;-81
2021/04/01 05:07:59;;;;;;;7.85;4.20;;;;;;;2.73;92.33;93400.25;2105900;28;20106;-81
2021/04/01 05:09:00;;;;;;;9.88;4.20;;;;;;;2.74;92.36;93409.69;2097540;28;20485;-82